»·PEaware :: N123KT KSNA-KRNM

N123KT :: KSNA-KRNM

FLIGHT INFORMATION

Flight Status: Arrived
Operator: Privately registered:
United States
More flights under this callsign
Pilot: Anonymous 475 (475)
Aircraft: CESSNA 172 SKYHAWK
(C172)
More flights by this aircraft type
Origin: KSNA John Wayne-Orange Co
United States
Destination: KRNM Ramona
United States
More flights between these airports :: More routes between these airports
Route: V23 OCN V208 JLI
File this flight plan on PilotEdge
Remarks: TEC route CSTP32
Altitude:
(Current/Filed)
7,000ft
Speed:
(Current/Filed)
120kts
Departed: 04-Sep-20 11:46 AM
Arrived: 04-Sep-20 12:25 PM
Distance/Time
Traveled:
61nm/0:39
Distance/Time
To Go:
Arrived

Flight Plot

Page will automatically refresh every two minutes.


Map Options




Map Legend


Flown Route
Filed Route
Departure Airport
Arrival Airport
Navaid (VOR, NDB)
Fix

Horizontal Profiles

Position Reports

Time Latitude Longitude Heading Altitude Ground
Speed
04-Sep-20 11:32 33.676156 -117.870972 183 52ft 0kts
04-Sep-20 11:33 33.676156 -117.870972 183 52ft 0kts
04-Sep-20 11:34 33.676156 -117.870972 183 52ft 0kts
04-Sep-20 11:35 33.676156 -117.870972 183 52ft 0kts
04-Sep-20 11:36 33.676156 -117.870972 183 52ft 0kts
04-Sep-20 11:36 33.676156 -117.870972 183 52ft 0kts
04-Sep-20 11:38 33.676156 -117.870972 183 52ft 0kts
04-Sep-20 11:38 33.676156 -117.870972 183 52ft 0kts
04-Sep-20 11:39 33.676156 -117.870972 183 52ft 0kts
04-Sep-20 11:41 33.676156 -117.870972 183 52ft 0kts
04-Sep-20 11:41 33.676122 -117.870955 136 52ft 3kts
04-Sep-20 11:42 33.678315 -117.868678 27 50ft 18kts
04-Sep-20 11:43 33.681211 -117.866420 118 43ft 0kts
04-Sep-20 11:44 33.680925 -117.865810 122 43ft 11kts
04-Sep-20 11:45 33.667311 -117.874186 205 271ft 82kts
04-Sep-20 11:46 33.644671 -117.878532 187 905ft 80kts
04-Sep-20 11:47 33.621915 -117.881329 186 1487ft 82kts
04-Sep-20 11:48 33.599172 -117.884218 186 2060ft 82kts
04-Sep-20 11:49 33.577300 -117.881947 114 2567ft 88kts
04-Sep-20 11:50 33.572322 -117.853254 101 3086ft 88kts
04-Sep-20 11:51 33.567876 -117.824664 102 3614ft 86kts
04-Sep-20 11:52 33.563231 -117.795952 108 4098ft 88kts
04-Sep-20 11:53 33.548612 -117.773078 131 4581ft 86kts
04-Sep-20 11:54 33.533152 -117.750583 132 5034ft 88kts
04-Sep-20 11:55 33.516520 -117.728999 134 5423ft 88kts
04-Sep-20 11:56 33.498538 -117.708991 130 5825ft 89kts
04-Sep-20 11:57 33.481658 -117.687166 131 6238ft 89kts
04-Sep-20 11:58 33.464486 -117.665403 134 6625ft 90kts
04-Sep-20 11:59 33.446733 -117.643754 134 6944ft 97kts
04-Sep-20 12:00 33.426781 -117.617694 136 7057ft 115kts
04-Sep-20 12:01 33.402885 -117.589811 135 7042ft 122kts
04-Sep-20 12:02 33.378129 -117.561574 139 7018ft 123kts
04-Sep-20 12:03 33.353768 -117.532721 137 7025ft 123kts
04-Sep-20 12:04 33.328994 -117.503980 138 6999ft 124kts
04-Sep-20 12:05 33.306036 -117.473385 131 6989ft 124kts
04-Sep-20 12:06 33.282717 -117.443325 135 6986ft 123kts
04-Sep-20 12:07 33.258697 -117.414206 123 6986ft 124kts
04-Sep-20 12:08 33.242064 -117.378272 116 6998ft 124kts
04-Sep-20 12:09 33.231725 -117.339153 93 6986ft 125kts
04-Sep-20 12:10 33.227098 -117.298375 109 6980ft 123kts
04-Sep-20 12:11 33.212388 -117.261217 113 6349ft 123kts
04-Sep-20 12:12 33.198648 -117.224169 116 5422ft 124kts
04-Sep-20 12:13 33.184887 -117.187524 115 4288ft 119kts
04-Sep-20 12:14 33.170691 -117.149599 113 3957ft 129kts
04-Sep-20 12:15 33.155595 -117.112370 118 4064ft 123kts
04-Sep-20 12:16 33.138694 -117.076466 121 4073ft 126kts
04-Sep-20 12:17 33.121594 -117.039712 121 4015ft 127kts
04-Sep-20 12:18 33.104386 -117.003196 122 3998ft 124kts
04-Sep-20 12:19 33.085742 -116.967975 122 4007ft 125kts
04-Sep-20 12:20 33.064661 -116.937034 134 3066ft 119kts
04-Sep-20 12:21 33.052325 -116.906866 96 2518ft 98kts
04-Sep-20 12:22 33.039298 -116.890482 221 2098ft 75kts
04-Sep-20 12:23 33.038780 -116.912402 280 1396ft 41kts
04-Sep-20 12:24 33.039626 -116.915033 8 1394ft 0kts
04-Sep-20 12:25 33.040556 -116.914151 160 1394ft 0kts
04-Sep-20 12:26 33.040556 -116.914151 160 1394ft 0kts

Navigation Log

Ident Type
Flight plan parsing failed, navigation log unavailable